sensor_id;sensor_type;location;lat;lon;timestamp;P1;durP1;ratioP1;P2;durP2;ratioP2
73980;SDS011;62348;51.412;5.436;2023-12-07T00:01:40;22.55;;;15.32;;
73980;SDS011;62348;51.412;5.436;2023-12-07T00:04:05;19.92;;;14.90;;
73980;SDS011;62348;51.412;5.436;2023-12-07T00:06:31;18.92;;;14.63;;
73980;SDS011;62348;51.412;5.436;2023-12-07T00:08:56;22.63;;;15.13;;
73980;SDS011;62348;51.412;5.436;2023-12-07T00:11:23;20.05;;;14.77;;
73980;SDS011;62348;51.412;5.436;2023-12-07T00:13:48;18.38;;;14.43;;
73980;SDS011;62348;51.412;5.436;2023-12-07T00:16:14;19.20;;;13.88;;
73980;SDS011;62348;51.412;5.436;2023-12-07T00:18:39;19.88;;;14.30;;
73980;SDS011;62348;51.412;5.436;2023-12-07T00:21:04;20.20;;;15.45;;
73980;SDS011;62348;51.412;5.436;2023-12-07T00:23:32;20.00;;;16.67;;
73980;SDS011;62348;51.412;5.436;2023-12-07T00:25:58;21.38;;;15.70;;
73980;SDS011;62348;51.412;5.436;2023-12-07T00:28:23;22.38;;;15.23;;
73980;SDS011;62348;51.412;5.436;2023-12-07T00:30:48;21.20;;;15.65;;
73980;SDS011;62348;51.412;5.436;2023-12-07T00:33:14;24.40;;;17.25;;
73980;SDS011;62348;51.412;5.436;2023-12-07T00:35:39;27.73;;;16.17;;
73980;SDS011;62348;51.412;5.436;2023-12-07T00:38:04;29.75;;;17.45;;
73980;SDS011;62348;51.412;5.436;2023-12-07T00:40:33;28.98;;;18.00;;
73980;SDS011;62348;51.412;5.436;2023-12-07T00:43:01;30.67;;;17.90;;
73980;SDS011;62348;51.412;5.436;2023-12-07T00:45:27;39.88;;;18.98;;
73980;SDS011;62348;51.412;5.436;2023-12-07T00:47:52;29.00;;;17.30;;
73980;SDS011;62348;51.412;5.436;2023-12-07T00:50:18;39.90;;;17.85;;
73980;SDS011;62348;51.412;5.436;2023-12-07T00:52:43;35.95;;;17.35;;
73980;SDS011;62348;51.412;5.436;2023-12-07T00:55:09;42.08;;;18.88;;
73980;SDS011;62348;51.412;5.436;2023-12-07T00:57:34;36.30;;;17.55;;
73980;SDS011;62348;51.412;5.436;2023-12-07T00:59:59;24.10;;;16.30;;
73980;SDS011;62348;51.412;5.436;2023-12-07T01:02:25;34.38;;;16.80;;
73980;SDS011;62348;51.412;5.436;2023-12-07T01:04:50;27.88;;;16.30;;
73980;SDS011;62348;51.412;5.436;2023-12-07T01:07:15;28.52;;;16.02;;
73980;SDS011;62348;51.412;5.436;2023-12-07T01:09:41;24.60;;;15.25;;
73980;SDS011;62348;51.412;5.436;2023-12-07T01:12:06;23.13;;;15.95;;
73980;SDS011;62348;51.412;5.436;2023-12-07T01:14:31;24.70;;;16.83;;
73980;SDS011;62348;51.412;5.436;2023-12-07T01:16:57;19.58;;;15.68;;
73980;SDS011;62348;51.412;5.436;2023-12-07T01:19:22;22.20;;;16.40;;
73980;SDS011;62348;51.412;5.436;2023-12-07T01:21:48;21.65;;;16.65;;
73980;SDS011;62348;51.412;5.436;2023-12-07T01:24:13;22.77;;;16.27;;
73980;SDS011;62348;51.412;5.436;2023-12-07T01:26:38;21.52;;;16.58;;
73980;SDS011;62348;51.412;5.436;2023-12-07T01:29:04;20.77;;;15.98;;
73980;SDS011;62348;51.412;5.436;2023-12-07T01:31:29;21.75;;;15.57;;
73980;SDS011;62348;51.412;5.436;2023-12-07T01:33:55;20.08;;;15.73;;
73980;SDS011;62348;51.412;5.436;2023-12-07T01:36:20;24.30;;;16.75;;
73980;SDS011;62348;51.412;5.436;2023-12-07T01:38:46;34.40;;;18.00;;
73980;SDS011;62348;51.412;5.436;2023-12-07T01:41:11;44.58;;;17.77;;
73980;SDS011;62348;51.412;5.436;2023-12-07T01:43:37;42.20;;;17.38;;
73980;SDS011;62348;51.412;5.436;2023-12-07T01:46:02;28.35;;;17.80;;
73980;SDS011;62348;51.412;5.436;2023-12-07T01:48:28;40.72;;;18.23;;
73980;SDS011;62348;51.412;5.436;2023-12-07T01:50:55;60.22;;;19.27;;
73980;SDS011;62348;51.412;5.436;2023-12-07T01:53:23;31.92;;;17.33;;
73980;SDS011;62348;51.412;5.436;2023-12-07T01:55:50;38.45;;;17.52;;
73980;SDS011;62348;51.412;5.436;2023-12-07T01:58:17;32.17;;;18.40;;
73980;SDS011;62348;51.412;5.436;2023-12-07T02:00:44;37.10;;;17.73;;
73980;SDS011;62348;51.412;5.436;2023-12-07T02:03:10;35.40;;;18.55;;
73980;SDS011;62348;51.412;5.436;2023-12-07T02:05:37;64.80;;;20.02;;
73980;SDS011;62348;51.412;5.436;2023-12-07T02:08:07;62.00;;;20.13;;
73980;SDS011;62348;51.412;5.436;2023-12-07T02:10:32;66.55;;;20.02;;
73980;SDS011;62348;51.412;5.436;2023-12-07T02:12:58;45.90;;;19.20;;
73980;SDS011;62348;51.412;5.436;2023-12-07T02:15:23;42.00;;;19.42;;
73980;SDS011;62348;51.412;5.436;2023-12-07T02:18:03;41.90;;;19.45;;
73980;SDS011;62348;51.412;5.436;2023-12-07T02:23:18;37.13;;;18.98;;
73980;SDS011;62348;51.412;5.436;2023-12-07T02:25:48;41.10;;;19.10;;
73980;SDS011;62348;51.412;5.436;2023-12-07T02:28:17;60.13;;;18.95;;
73980;SDS011;62348;51.412;5.436;2023-12-07T02:30:43;48.97;;;18.45;;
73980;SDS011;62348;51.412;5.436;2023-12-07T02:33:08;35.40;;;18.67;;
73980;SDS011;62348;51.412;5.436;2023-12-07T02:35:34;49.30;;;20.48;;
73980;SDS011;62348;51.412;5.436;2023-12-07T02:38:01;42.92;;;18.33;;
73980;SDS011;62348;51.412;5.436;2023-12-07T02:40:28;50.17;;;20.17;;
73980;SDS011;62348;51.412;5.436;2023-12-07T02:42:54;40.75;;;20.08;;
73980;SDS011;62348;51.412;5.436;2023-12-07T02:45:21;53.90;;;19.80;;
73980;SDS011;62348;51.412;5.436;2023-12-07T02:47:47;47.63;;;20.48;;
73980;SDS011;62348;51.412;5.436;2023-12-07T02:50:12;51.40;;;20.27;;
73980;SDS011;62348;51.412;5.436;2023-12-07T02:52:38;57.85;;;20.45;;
73980;SDS011;62348;51.412;5.436;2023-12-07T02:55:04;58.55;;;21.00;;
73980;SDS011;62348;51.412;5.436;2023-12-07T02:57:30;36.80;;;20.65;;
73980;SDS011;62348;51.412;5.436;2023-12-07T02:59:55;42.97;;;20.90;;
73980;SDS011;62348;51.412;5.436;2023-12-07T03:02:21;58.42;;;22.88;;
73980;SDS011;62348;51.412;5.436;2023-12-07T03:04:47;44.97;;;21.25;;
73980;SDS011;62348;51.412;5.436;2023-12-07T03:07:12;55.03;;;21.92;;
73980;SDS011;62348;51.412;5.436;2023-12-07T03:09:38;46.08;;;20.55;;
73980;SDS011;62348;51.412;5.436;2023-12-07T03:12:03;66.28;;;22.48;;
73980;SDS011;62348;51.412;5.436;2023-12-07T03:14:29;44.03;;;19.13;;
73980;SDS011;62348;51.412;5.436;2023-12-07T03:16:54;70.35;;;20.65;;
73980;SDS011;62348;51.412;5.436;2023-12-07T03:19:20;50.60;;;19.42;;
73980;SDS011;62348;51.412;5.436;2023-12-07T03:21:45;42.60;;;18.65;;
73980;SDS011;62348;51.412;5.436;2023-12-07T03:24:10;55.20;;;19.40;;
73980;SDS011;62348;51.412;5.436;2023-12-07T03:26:36;36.75;;;18.65;;
73980;SDS011;62348;51.412;5.436;2023-12-07T03:29:02;75.40;;;19.70;;
73980;SDS011;62348;51.412;5.436;2023-12-07T03:31:28;49.22;;;17.73;;
73980;SDS011;62348;51.412;5.436;2023-12-07T03:33:54;54.75;;;18.33;;
73980;SDS011;62348;51.412;5.436;2023-12-07T03:36:20;48.42;;;18.33;;
73980;SDS011;62348;51.412;5.436;2023-12-07T03:38:45;43.35;;;17.92;;
73980;SDS011;62348;51.412;5.436;2023-12-07T03:41:10;36.42;;;16.20;;
73980;SDS011;62348;51.412;5.436;2023-12-07T03:43:36;36.92;;;17.30;;
73980;SDS011;62348;51.412;5.436;2023-12-07T03:46:07;52.90;;;16.10;;
73980;SDS011;62348;51.412;5.436;2023-12-07T03:48:33;50.55;;;16.90;;
73980;SDS011;62348;51.412;5.436;2023-12-07T03:50:59;55.90;;;16.35;;
73980;SDS011;62348;51.412;5.436;2023-12-07T03:53:25;42.22;;;14.98;;
73980;SDS011;62348;51.412;5.436;2023-12-07T03:55:50;37.50;;;14.45;;
73980;SDS011;62348;51.412;5.436;2023-12-07T03:58:16;56.75;;;15.10;;
73980;SDS011;62348;51.412;5.436;2023-12-07T04:00:41;40.83;;;14.52;;
73980;SDS011;62348;51.412;5.436;2023-12-07T04:03:07;47.53;;;13.82;;
73980;SDS011;62348;51.412;5.436;2023-12-07T04:05:32;29.33;;;13.57;;
73980;SDS011;62348;51.412;5.436;2023-12-07T04:07:58;43.63;;;13.40;;
73980;SDS011;62348;51.412;5.436;2023-12-07T04:10:23;30.33;;;13.13;;
73980;SDS011;62348;51.412;5.436;2023-12-07T04:12:49;26.70;;;11.98;;
73980;SDS011;62348;51.412;5.436;2023-12-07T04:15:15;24.30;;;12.40;;
73980;SDS011;62348;51.412;5.436;2023-12-07T04:17:40;33.10;;;11.48;;
73980;SDS011;62348;51.412;5.436;2023-12-07T04:20:06;21.85;;;11.25;;
73980;SDS011;62348;51.412;5.436;2023-12-07T04:22:32;24.65;;;12.10;;
73980;SDS011;62348;51.412;5.436;2023-12-07T04:24:58;17.48;;;10.85;;
73980;SDS011;62348;51.412;5.436;2023-12-07T04:27:23;23.17;;;12.15;;
73980;SDS011;62348;51.412;5.436;2023-12-07T04:29:49;28.80;;;11.95;;
73980;SDS011;62348;51.412;5.436;2023-12-07T04:32:14;23.38;;;11.80;;
73980;SDS011;62348;51.412;5.436;2023-12-07T04:34:40;30.75;;;11.65;;
73980;SDS011;62348;51.412;5.436;2023-12-07T04:37:05;22.75;;;11.63;;
73980;SDS011;62348;51.412;5.436;2023-12-07T04:39:30;31.63;;;11.38;;
73980;SDS011;62348;51.412;5.436;2023-12-07T04:41:56;38.63;;;12.98;;
73980;SDS011;62348;51.412;5.436;2023-12-07T04:44:21;28.98;;;12.13;;
73980;SDS011;62348;51.412;5.436;2023-12-07T04:46:46;46.78;;;12.23;;
73980;SDS011;62348;51.412;5.436;2023-12-07T04:49:12;50.53;;;13.63;;
73980;SDS011;62348;51.412;5.436;2023-12-07T04:51:37;32.65;;;12.48;;
73980;SDS011;62348;51.412;5.436;2023-12-07T04:54:03;26.98;;;11.98;;
73980;SDS011;62348;51.412;5.436;2023-12-07T04:56:28;43.03;;;13.50;;
73980;SDS011;62348;51.412;5.436;2023-12-07T04:58:53;42.10;;;12.27;;
73980;SDS011;62348;51.412;5.436;2023-12-07T05:01:19;28.48;;;12.80;;
73980;SDS011;62348;51.412;5.436;2023-12-07T05:03:44;28.23;;;11.80;;
73980;SDS011;62348;51.412;5.436;2023-12-07T05:06:10;30.80;;;13.32;;
73980;SDS011;62348;51.412;5.436;2023-12-07T05:08:36;46.47;;;13.65;;
73980;SDS011;62348;51.412;5.436;2023-12-07T05:11:03;25.85;;;12.63;;
73980;SDS011;62348;51.412;5.436;2023-12-07T05:13:29;55.65;;;14.23;;
73980;SDS011;62348;51.412;5.436;2023-12-07T05:15:54;40.78;;;13.15;;
73980;SDS011;62348;51.412;5.436;2023-12-07T05:18:20;43.97;;;13.18;;
73980;SDS011;62348;51.412;5.436;2023-12-07T05:20:45;34.42;;;13.63;;
73980;SDS011;62348;51.412;5.436;2023-12-07T05:23:10;50.13;;;12.75;;
73980;SDS011;62348;51.412;5.436;2023-12-07T05:25:36;52.42;;;15.18;;
73980;SDS011;62348;51.412;5.436;2023-12-07T05:28:01;40.88;;;12.88;;
73980;SDS011;62348;51.412;5.436;2023-12-07T05:30:27;44.00;;;12.63;;
73980;SDS011;62348;51.412;5.436;2023-12-07T05:32:53;31.58;;;13.10;;
73980;SDS011;62348;51.412;5.436;2023-12-07T05:35:18;51.78;;;12.98;;
73980;SDS011;62348;51.412;5.436;2023-12-07T05:37:44;36.35;;;11.25;;
73980;SDS011;62348;51.412;5.436;2023-12-07T05:40:09;31.42;;;11.73;;
73980;SDS011;62348;51.412;5.436;2023-12-07T05:42:37;34.22;;;11.30;;
73980;SDS011;62348;51.412;5.436;2023-12-07T05:45:02;33.58;;;10.98;;
73980;SDS011;62348;51.412;5.436;2023-12-07T05:47:29;41.63;;;12.02;;
73980;SDS011;62348;51.412;5.436;2023-12-07T05:49:54;38.25;;;10.93;;
73980;SDS011;62348;51.412;5.436;2023-12-07T05:52:22;29.33;;;11.63;;
73980;SDS011;62348;51.412;5.436;2023-12-07T05:54:48;44.58;;;13.25;;
73980;SDS011;62348;51.412;5.436;2023-12-07T05:57:13;56.10;;;11.93;;
73980;SDS011;62348;51.412;5.436;2023-12-07T05:59:39;36.35;;;10.70;;
73980;SDS011;62348;51.412;5.436;2023-12-07T06:02:04;28.35;;;10.50;;
73980;SDS011;62348;51.412;5.436;2023-12-07T06:04:30;31.02;;;11.77;;
73980;SDS011;62348;51.412;5.436;2023-12-07T06:06:55;24.67;;;10.43;;
73980;SDS011;62348;51.412;5.436;2023-12-07T06:09:21;35.10;;;11.65;;
73980;SDS011;62348;51.412;5.436;2023-12-07T06:11:47;42.03;;;12.02;;
73980;SDS011;62348;51.412;5.436;2023-12-07T06:14:12;40.63;;;12.27;;
73980;SDS011;62348;51.412;5.436;2023-12-07T06:16:38;44.53;;;11.70;;
73980;SDS011;62348;51.412;5.436;2023-12-07T06:19:03;26.15;;;12.75;;
73980;SDS011;62348;51.412;5.436;2023-12-07T06:21:29;33.38;;;12.50;;
73980;SDS011;62348;51.412;5.436;2023-12-07T06:23:55;29.08;;;12.15;;
73980;SDS011;62348;51.412;5.436;2023-12-07T06:26:21;41.28;;;12.82;;
73980;SDS011;62348;51.412;5.436;2023-12-07T06:28:46;29.23;;;11.65;;
73980;SDS011;62348;51.412;5.436;2023-12-07T06:31:12;28.20;;;13.13;;
73980;SDS011;62348;51.412;5.436;2023-12-07T06:33:40;36.38;;;12.65;;
73980;SDS011;62348;51.412;5.436;2023-12-07T06:36:06;34.83;;;13.48;;
73980;SDS011;62348;51.412;5.436;2023-12-07T06:38:32;31.60;;;12.68;;
73980;SDS011;62348;51.412;5.436;2023-12-07T06:40:57;31.15;;;13.00;;
73980;SDS011;62348;51.412;5.436;2023-12-07T06:43:23;40.05;;;13.98;;
73980;SDS011;62348;51.412;5.436;2023-12-07T06:45:48;44.25;;;14.93;;
73980;SDS011;62348;51.412;5.436;2023-12-07T06:48:13;33.50;;;15.30;;
73980;SDS011;62348;51.412;5.436;2023-12-07T06:50:39;33.53;;;15.02;;
73980;SDS011;62348;51.412;5.436;2023-12-07T06:53:04;37.42;;;14.15;;
73980;SDS011;62348;51.412;5.436;2023-12-07T06:55:30;29.15;;;14.13;;
73980;SDS011;62348;51.412;5.436;2023-12-07T06:57:55;29.52;;;14.25;;
73980;SDS011;62348;51.412;5.436;2023-12-07T07:00:21;36.13;;;15.90;;
73980;SDS011;62348;51.412;5.436;2023-12-07T07:02:46;32.92;;;15.05;;
73980;SDS011;62348;51.412;5.436;2023-12-07T07:05:12;31.40;;;14.27;;
73980;SDS011;62348;51.412;5.436;2023-12-07T07:07:37;38.83;;;15.95;;
73980;SDS011;62348;51.412;5.436;2023-12-07T07:10:03;43.67;;;16.60;;
73980;SDS011;62348;51.412;5.436;2023-12-07T07:12:30;28.17;;;15.98;;
73980;SDS011;62348;51.412;5.436;2023-12-07T07:14:55;32.05;;;14.93;;
73980;SDS011;62348;51.412;5.436;2023-12-07T07:17:21;38.22;;;16.63;;
73980;SDS011;62348;51.412;5.436;2023-12-07T07:19:46;29.38;;;14.63;;
73980;SDS011;62348;51.412;5.436;2023-12-07T07:22:12;33.33;;;15.75;;
73980;SDS011;62348;51.412;5.436;2023-12-07T07:24:37;31.27;;;14.75;;
73980;SDS011;62348;51.412;5.436;2023-12-07T07:27:03;31.05;;;15.60;;
73980;SDS011;62348;51.412;5.436;2023-12-07T07:29:28;29.92;;;14.65;;
73980;SDS011;62348;51.412;5.436;2023-12-07T07:31:54;29.80;;;14.82;;
73980;SDS011;62348;51.412;5.436;2023-12-07T07:34:21;27.10;;;13.68;;
73980;SDS011;62348;51.412;5.436;2023-12-07T07:36:46;25.52;;;13.35;;
73980;SDS011;62348;51.412;5.436;2023-12-07T07:39:12;26.48;;;14.38;;
73980;SDS011;62348;51.412;5.436;2023-12-07T07:41:39;28.20;;;13.52;;
73980;SDS011;62348;51.412;5.436;2023-12-07T07:44:04;26.80;;;13.80;;
73980;SDS011;62348;51.412;5.436;2023-12-07T07:46:30;25.75;;;13.40;;
73980;SDS011;62348;51.412;5.436;2023-12-07T07:48:55;25.48;;;12.88;;
73980;SDS011;62348;51.412;5.436;2023-12-07T07:51:21;25.50;;;12.43;;
73980;SDS011;62348;51.412;5.436;2023-12-07T07:53:46;28.30;;;13.50;;
73980;SDS011;62348;51.412;5.436;2023-12-07T07:56:11;26.88;;;13.73;;
73980;SDS011;62348;51.412;5.436;2023-12-07T07:58:37;24.58;;;13.40;;
73980;SDS011;62348;51.412;5.436;2023-12-07T08:01:02;23.55;;;13.13;;
73980;SDS011;62348;51.412;5.436;2023-12-07T08:03:28;28.08;;;13.80;;
73980;SDS011;62348;51.412;5.436;2023-12-07T08:05:53;28.40;;;15.15;;
73980;SDS011;62348;51.412;5.436;2023-12-07T08:08:19;23.77;;;12.35;;
73980;SDS011;62348;51.412;5.436;2023-12-07T08:10:44;26.73;;;14.43;;
73980;SDS011;62348;51.412;5.436;2023-12-07T08:13:10;26.15;;;13.88;;
73980;SDS011;62348;51.412;5.436;2023-12-07T08:15:35;29.13;;;13.85;;
73980;SDS011;62348;51.412;5.436;2023-12-07T08:18:01;26.23;;;14.15;;
73980;SDS011;62348;51.412;5.436;2023-12-07T08:20:27;31.35;;;14.73;;
73980;SDS011;62348;51.412;5.436;2023-12-07T08:22:52;34.67;;;16.60;;
73980;SDS011;62348;51.412;5.436;2023-12-07T08:25:18;36.38;;;16.58;;
73980;SDS011;62348;51.412;5.436;2023-12-07T08:27:43;34.58;;;16.08;;
73980;SDS011;62348;51.412;5.436;2023-12-07T08:30:11;32.80;;;16.40;;
73980;SDS011;62348;51.412;5.436;2023-12-07T08:32:37;32.63;;;15.90;;
73980;SDS011;62348;51.412;5.436;2023-12-07T08:35:03;42.78;;;18.17;;
73980;SDS011;62348;51.412;5.436;2023-12-07T08:37:30;41.45;;;18.13;;
73980;SDS011;62348;51.412;5.436;2023-12-07T08:39:55;44.78;;;18.67;;
73980;SDS011;62348;51.412;5.436;2023-12-07T08:42:21;39.67;;;18.73;;
73980;SDS011;62348;51.412;5.436;2023-12-07T08:44:46;41.20;;;18.75;;
73980;SDS011;62348;51.412;5.436;2023-12-07T08:47:12;43.90;;;18.90;;
73980;SDS011;62348;51.412;5.436;2023-12-07T08:49:37;38.08;;;19.35;;
73980;SDS011;62348;51.412;5.436;2023-12-07T08:52:02;33.22;;;18.75;;
73980;SDS011;62348;51.412;5.436;2023-12-07T08:54:28;27.08;;;13.70;;
73980;SDS011;62348;51.412;5.436;2023-12-07T08:56:54;36.58;;;18.55;;
73980;SDS011;62348;51.412;5.436;2023-12-07T08:59:20;35.92;;;18.00;;
73980;SDS011;62348;51.412;5.436;2023-12-07T09:01:45;37.67;;;17.85;;
73980;SDS011;62348;51.412;5.436;2023-12-07T09:04:11;37.17;;;18.10;;
73980;SDS011;62348;51.412;5.436;2023-12-07T09:06:37;32.67;;;17.70;;
73980;SDS011;62348;51.412;5.436;2023-12-07T09:09:03;37.30;;;16.85;;
73980;SDS011;62348;51.412;5.436;2023-12-07T09:11:31;29.55;;;16.80;;
73980;SDS011;62348;51.412;5.436;2023-12-07T09:13:57;35.22;;;17.38;;
73980;SDS011;62348;51.412;5.436;2023-12-07T09:16:23;33.38;;;18.27;;
73980;SDS011;62348;51.412;5.436;2023-12-07T09:18:48;31.80;;;15.75;;
73980;SDS011;62348;51.412;5.436;2023-12-07T09:21:14;32.13;;;16.15;;
73980;SDS011;62348;51.412;5.436;2023-12-07T09:23:39;27.38;;;16.27;;
73980;SDS011;62348;51.412;5.436;2023-12-07T09:26:05;27.25;;;15.88;;
73980;SDS011;62348;51.412;5.436;2023-12-07T09:28:31;30.77;;;16.98;;
73980;SDS011;62348;51.412;5.436;2023-12-07T09:30:58;33.33;;;17.50;;
73980;SDS011;62348;51.412;5.436;2023-12-07T09:33:23;32.65;;;17.10;;
73980;SDS011;62348;51.412;5.436;2023-12-07T09:35:48;34.45;;;15.68;;
73980;SDS011;62348;51.412;5.436;2023-12-07T09:38:14;30.50;;;16.48;;
73980;SDS011;62348;51.412;5.436;2023-12-07T09:40:39;27.00;;;15.55;;
73980;SDS011;62348;51.412;5.436;2023-12-07T09:43:05;29.05;;;16.58;;
73980;SDS011;62348;51.412;5.436;2023-12-07T09:45:30;32.08;;;16.60;;
73980;SDS011;62348;51.412;5.436;2023-12-07T09:47:56;30.65;;;16.50;;
73980;SDS011;62348;51.412;5.436;2023-12-07T09:50:26;33.60;;;17.05;;
73980;SDS011;62348;51.412;5.436;2023-12-07T09:52:56;29.08;;;16.23;;
73980;SDS011;62348;51.412;5.436;2023-12-07T09:55:23;34.33;;;16.80;;
73980;SDS011;62348;51.412;5.436;2023-12-07T09:57:49;32.40;;;17.88;;
73980;SDS011;62348;51.412;5.436;2023-12-07T10:00:15;30.95;;;17.15;;
73980;SDS011;62348;51.412;5.436;2023-12-07T10:02:43;34.80;;;18.05;;
73980;SDS011;62348;51.412;5.436;2023-12-07T10:05:10;28.60;;;16.08;;
73980;SDS011;62348;51.412;5.436;2023-12-07T10:07:41;29.85;;;15.63;;
73980;SDS011;62348;51.412;5.436;2023-12-07T10:10:08;32.85;;;18.17;;
73980;SDS011;62348;51.412;5.436;2023-12-07T10:12:40;31.75;;;18.33;;
73980;SDS011;62348;51.412;5.436;2023-12-07T10:15:19;27.63;;;16.05;;
73980;SDS011;62348;51.412;5.436;2023-12-07T10:17:46;29.20;;;17.40;;
73980;SDS011;62348;51.412;5.436;2023-12-07T10:20:14;24.85;;;15.55;;
73980;SDS011;62348;51.412;5.436;2023-12-07T10:22:40;27.17;;;15.20;;
73980;SDS011;62348;51.412;5.436;2023-12-07T10:25:07;27.02;;;15.57;;
73980;SDS011;62348;51.412;5.436;2023-12-07T10:27:34;27.13;;;15.68;;
73980;SDS011;62348;51.412;5.436;2023-12-07T10:30:00;27.30;;;15.88;;
73980;SDS011;62348;51.412;5.436;2023-12-07T10:32:26;28.23;;;15.82;;
73980;SDS011;62348;51.412;5.436;2023-12-07T10:34:52;28.30;;;15.52;;
73980;SDS011;62348;51.412;5.436;2023-12-07T10:37:18;25.73;;;14.95;;
73980;SDS011;62348;51.412;5.436;2023-12-07T10:39:43;27.58;;;15.48;;
73980;SDS011;62348;51.412;5.436;2023-12-07T10:42:09;26.45;;;14.43;;
73980;SDS011;62348;51.412;5.436;2023-12-07T10:44:38;24.55;;;15.57;;
73980;SDS011;62348;51.412;5.436;2023-12-07T10:47:08;26.48;;;14.32;;
73980;SDS011;62348;51.412;5.436;2023-12-07T10:49:35;26.00;;;16.15;;
73980;SDS011;62348;51.412;5.436;2023-12-07T10:52:06;27.38;;;14.65;;
73980;SDS011;62348;51.412;5.436;2023-12-07T10:54:43;25.80;;;14.85;;
73980;SDS011;62348;51.412;5.436;2023-12-07T10:57:19;23.15;;;14.10;;
73980;SDS011;62348;51.412;5.436;2023-12-07T10:59:45;26.25;;;14.90;;
73980;SDS011;62348;51.412;5.436;2023-12-07T11:02:15;23.13;;;15.13;;
73980;SDS011;62348;51.412;5.436;2023-12-07T11:04:41;27.05;;;15.48;;
73980;SDS011;62348;51.412;5.436;2023-12-07T11:07:10;22.75;;;14.45;;
73980;SDS011;62348;51.412;5.436;2023-12-07T11:09:44;24.88;;;13.45;;
73980;SDS011;62348;51.412;5.436;2023-12-07T11:12:20;21.35;;;12.50;;
73980;SDS011;62348;51.412;5.436;2023-12-07T11:15:03;22.60;;;13.15;;
73980;SDS011;62348;51.412;5.436;2023-12-07T11:17:30;22.13;;;13.52;;
73980;SDS011;62348;51.412;5.436;2023-12-07T11:20:21;22.63;;;14.48;;
73980;SDS011;62348;51.412;5.436;2023-12-07T11:22:47;23.73;;;13.77;;
73980;SDS011;62348;51.412;5.436;2023-12-07T11:25:14;20.70;;;13.88;;
73980;SDS011;62348;51.412;5.436;2023-12-07T11:27:40;20.15;;;13.85;;
73980;SDS011;62348;51.412;5.436;2023-12-07T11:30:06;22.33;;;13.75;;
73980;SDS011;62348;51.412;5.436;2023-12-07T11:32:32;23.98;;;14.80;;
73980;SDS011;62348;51.412;5.436;2023-12-07T11:35:07;22.33;;;14.73;;
73980;SDS011;62348;51.412;5.436;2023-12-07T11:40:29;21.85;;;13.80;;
73980;SDS011;62348;51.412;5.436;2023-12-07T11:42:56;22.27;;;14.15;;
73980;SDS011;62348;51.412;5.436;2023-12-07T11:45:37;22.90;;;14.27;;
73980;SDS011;62348;51.412;5.436;2023-12-07T11:48:11;23.75;;;15.38;;
73980;SDS011;62348;51.412;5.436;2023-12-07T11:53:22;22.50;;;14.98;;
73980;SDS011;62348;51.412;5.436;2023-12-07T11:55:49;26.63;;;15.35;;
73980;SDS011;62348;51.412;5.436;2023-12-07T11:58:15;23.63;;;14.60;;
73980;SDS011;62348;51.412;5.436;2023-12-07T12:00:41;22.42;;;14.90;;
73980;SDS011;62348;51.412;5.436;2023-12-07T12:03:06;24.58;;;14.93;;
73980;SDS011;62348;51.412;5.436;2023-12-07T12:05:32;23.63;;;15.02;;
73980;SDS011;62348;51.412;5.436;2023-12-07T12:07:57;23.95;;;15.13;;
73980;SDS011;62348;51.412;5.436;2023-12-07T12:10:22;24.35;;;15.00;;
73980;SDS011;62348;51.412;5.436;2023-12-07T12:12:50;23.92;;;15.48;;
73980;SDS011;62348;51.412;5.436;2023-12-07T12:15:16;26.80;;;14.88;;
73980;SDS011;62348;51.412;5.436;2023-12-07T12:17:42;24.33;;;14.57;;
73980;SDS011;62348;51.412;5.436;2023-12-07T12:20:08;23.45;;;14.13;;
73980;SDS011;62348;51.412;5.436;2023-12-07T12:22:36;25.88;;;14.60;;
73980;SDS011;62348;51.412;5.436;2023-12-07T12:25:02;23.60;;;14.70;;
73980;SDS011;62348;51.412;5.436;2023-12-07T12:27:29;23.45;;;13.32;;
73980;SDS011;62348;51.412;5.436;2023-12-07T12:29:55;20.67;;;13.52;;
73980;SDS011;62348;51.412;5.436;2023-12-07T12:32:21;26.80;;;13.98;;
73980;SDS011;62348;51.412;5.436;2023-12-07T12:34:50;21.33;;;13.75;;
73980;SDS011;62348;51.412;5.436;2023-12-07T12:37:16;20.63;;;13.43;;
73980;SDS011;62348;51.412;5.436;2023-12-07T12:39:41;21.65;;;13.38;;
73980;SDS011;62348;51.412;5.436;2023-12-07T12:42:07;20.15;;;12.77;;
73980;SDS011;62348;51.412;5.436;2023-12-07T12:44:33;20.02;;;13.63;;
73980;SDS011;62348;51.412;5.436;2023-12-07T12:46:58;22.67;;;14.18;;
73980;SDS011;62348;51.412;5.436;2023-12-07T12:49:34;18.63;;;12.07;;
73980;SDS011;62348;51.412;5.436;2023-12-07T12:52:04;24.63;;;13.88;;
73980;SDS011;62348;51.412;5.436;2023-12-07T12:54:34;19.85;;;13.10;;
73980;SDS011;62348;51.412;5.436;2023-12-07T12:57:00;22.63;;;13.75;;
73980;SDS011;62348;51.412;5.436;2023-12-07T12:59:26;21.33;;;13.55;;
73980;SDS011;62348;51.412;5.436;2023-12-07T13:01:52;20.38;;;12.43;;
73980;SDS011;62348;51.412;5.436;2023-12-07T13:04:17;20.02;;;13.07;;
73980;SDS011;62348;51.412;5.436;2023-12-07T13:06:42;19.60;;;12.48;;
73980;SDS011;62348;51.412;5.436;2023-12-07T13:09:08;23.25;;;13.45;;
73980;SDS011;62348;51.412;5.436;2023-12-07T13:11:34;20.52;;;13.73;;
73980;SDS011;62348;51.412;5.436;2023-12-07T13:13:59;22.75;;;13.68;;
73980;SDS011;62348;51.412;5.436;2023-12-07T13:16:24;18.63;;;12.75;;
73980;SDS011;62348;51.412;5.436;2023-12-07T13:18:50;21.83;;;13.48;;
73980;SDS011;62348;51.412;5.436;2023-12-07T13:21:15;22.75;;;13.02;;
73980;SDS011;62348;51.412;5.436;2023-12-07T13:23:41;23.23;;;14.60;;
73980;SDS011;62348;51.412;5.436;2023-12-07T13:26:06;24.42;;;14.15;;
73980;SDS011;62348;51.412;5.436;2023-12-07T13:28:32;23.33;;;15.52;;
73980;SDS011;62348;51.412;5.436;2023-12-07T13:30:58;26.58;;;14.07;;
73980;SDS011;62348;51.412;5.436;2023-12-07T13:33:23;24.02;;;14.77;;
73980;SDS011;62348;51.412;5.436;2023-12-07T13:35:50;20.17;;;13.77;;
73980;SDS011;62348;51.412;5.436;2023-12-07T13:38:17;22.70;;;15.02;;
73980;SDS011;62348;51.412;5.436;2023-12-07T13:40:45;23.63;;;15.00;;
73980;SDS011;62348;51.412;5.436;2023-12-07T13:43:11;24.42;;;14.55;;
73980;SDS011;62348;51.412;5.436;2023-12-07T13:45:37;19.77;;;13.10;;
73980;SDS011;62348;51.412;5.436;2023-12-07T13:48:03;22.70;;;14.57;;
73980;SDS011;62348;51.412;5.436;2023-12-07T13:50:28;21.73;;;14.30;;
73980;SDS011;62348;51.412;5.436;2023-12-07T13:52:54;22.38;;;14.27;;
73980;SDS011;62348;51.412;5.436;2023-12-07T13:55:19;23.38;;;13.73;;
73980;SDS011;62348;51.412;5.436;2023-12-07T13:57:45;20.80;;;13.35;;
73980;SDS011;62348;51.412;5.436;2023-12-07T14:00:10;23.70;;;15.57;;
73980;SDS011;62348;51.412;5.436;2023-12-07T14:02:38;21.10;;;13.57;;
73980;SDS011;62348;51.412;5.436;2023-12-07T14:05:04;23.48;;;14.95;;
73980;SDS011;62348;51.412;5.436;2023-12-07T14:07:30;26.58;;;14.23;;
73980;SDS011;62348;51.412;5.436;2023-12-07T14:09:55;24.67;;;14.25;;
73980;SDS011;62348;51.412;5.436;2023-12-07T14:12:20;23.15;;;14.07;;
73980;SDS011;62348;51.412;5.436;2023-12-07T14:14:46;30.15;;;15.63;;
73980;SDS011;62348;51.412;5.436;2023-12-07T14:17:13;24.05;;;15.13;;
73980;SDS011;62348;51.412;5.436;2023-12-07T14:19:39;24.00;;;15.60;;
73980;SDS011;62348;51.412;5.436;2023-12-07T14:22:05;24.90;;;16.50;;
73980;SDS011;62348;51.412;5.436;2023-12-07T14:24:30;24.73;;;15.32;;